• Join FlightAware (Why Join?)
  • Login
  • US Flag 
01:30AM EDT


 

Airport Tracker/Info


-or-


 

Live Flight TrackerFlight Track Log ✈ UAL4274 ✈ 16-Apr-2013 ✈ KRIC - KCLE

Flight Track Log - Related Links

Times and Time Zones

All times are in EDT time to prevent confusion due to time zone crossing. See the UAL4274 flight status page for this flight to view local times or setup timezone preferences in your user account.

Time Position Orientation Groundspeed Altitude Reporting Facility
EDT Latitude Longitude Course Direction KTS MPH feet Rate Location/Type
06:32AM 37.4833 -77.3833 322° Northwest 210 242 2,900  Level Potomac TRACON
06:33AM 37.5006 -77.4006 322° Northwest 221 254 4,000 2,820 Climbing Washington Center
06:34AM 37.5494 -77.4725 311° West 241 277 7,300 3,480 Climbing Washington Center
06:35AM 37.6025 -77.5525 310° West 266 306 11,000 2,640 Climbing Washington Center
06:36AM 37.6617 -77.6353 312° West 288 331 12,600 1,560 Climbing Washington Center
06:37AM 37.7247 -77.7264 311° West 317 365 14,200 1,500 Climbing Washington Center
06:38AM 37.7917 -77.8228 311° West 350 403 15,700 1,440 Climbing Washington Center
06:39AM 37.8586 -77.9247 310° West 369 425 17,100 1,440 Climbing Washington Center
06:40AM 37.9275 -78.0244 311° West 374 430 18,600 1,560 Climbing Washington Center
06:41AM 37.9964 -78.1214 312° West 374 430 20,300 1,680 Climbing Washington Center
06:42AM 38.0958 -78.1617 342° North 357 411 22,000 1,680 Climbing Washington Center
06:43AM 38.2081 -78.1681 357° North 366 421 23,700 1,740 Climbing Washington Center
06:44AM 38.3164 -78.1744 357° North 379 436 25,500 1,620 Climbing Washington Center
06:45AM 38.4289 -78.1811 357° North 391 450 27,000 720 Climbing Washington Center
06:46AM 38.5436 -78.1878 357° North 403 464 27,000  Level Washington Center
06:47AM 38.6664 -78.1975 356° North 415 478 27,000  Level Washington Center
06:48AM 38.7933 -78.2044 358° North 430 495 27,000  Level Washington Center
06:49AM 38.9181 -78.2169 356° North 443 510 27,000  Level Washington Center
06:50AM 39.0492 -78.2297 356° North 455 524 27,000  Level Washington Center
06:51AM 39.1742 -78.2394 357° North 455 524 27,000  Level Washington Center
06:52AM 39.3008 -78.2522 356° North 460 529 27,000  Level Washington Center
06:53AM 39.4256 -78.2675 355° North 460 529 27,000  Level Washington Center
06:55AM 39.7003 -78.2978 355° North 461 531 27,000  Level Cleveland Center
06:56AM 39.8233 -78.3069 357° North 456 525 27,000  Level Cleveland Center
06:57AM 39.9469 -78.3272 353° North 446 513 27,000 -420 Level Cleveland Center
06:58AM 40.0403 -78.4136 325° Northwest 426 490 26,200 -540 Descending Cleveland Center
06:59AM 40.1092 -78.5308 308° West 401 461 26,000 -120 Descending Cleveland Center
07:00AM 40.1778 -78.6483 307° West 401 461 26,000  Level Cleveland Center
07:01AM 40.2467 -78.7686 307° West 406 467 26,000  Level Cleveland Center
07:02AM 40.3172 -78.8867 308° West 412 474 26,000  Level Cleveland Center
07:03AM 40.3878 -79.0075 307° West 412 474 26,000  Level Cleveland Center
07:04AM 40.4581 -79.1314 307° West 417 480 26,000  Level Cleveland Center
07:05AM 40.5306 -79.2556 308° West 422 486 26,000  Level Cleveland Center
07:06AM 40.6092 -79.3933 307° West 428 493 26,000  Level Cleveland Center
07:07AM 40.6792 -79.5153 307° West 428 493 26,000  Level Cleveland Center
07:08AM 40.7511 -79.6375 308° West 428 493 26,000  Level Cleveland Center
07:09AM 40.8208 -79.7628 306° West 433 498 26,000  Level Cleveland Center
07:10AM 40.8925 -79.8856 308° West 433 498 26,000  Level Cleveland Center
07:11AM 40.9622 -80.0083 307° West 433 498 26,000  Level Cleveland Center
07:12AM 41.0336 -80.1344 307° West 433 498 26,000 -180 Level Cleveland Center
07:13AM 41.1006 -80.2581 306° West 428 493 25,700 -840 Descending Cleveland Center
07:14AM 41.1656 -80.3761 306° West 421 484 24,400 -1,140 Descending Cleveland Center
07:15AM 41.2261 -80.4864 306° West 390 449 23,500 -2,460 Descending Cleveland Center
07:16AM 41.2867 -80.5942 307° West 368 423 19,500 -3,780 Descending Cleveland Center
07:17AM 41.3408 -80.7019 304° West 362 417 16,000 -3,300 Descending Cleveland Center
07:18AM 41.3822 -80.8156 296° West 342 394 13,000 -2,820 Descending Cleveland Center
07:19AM 41.4258 -80.9239 298° West 331 381 10,400 -1,440 Descending Cleveland Center
07:20AM 41.4692 -81.0458 295° West 322 371 10,000 -240 Descending Cleveland Center
07:21AM 41.5042 -81.1350 298° West 321 369 10,000 -60 Level Cleveland Center
07:22AM 41.5100 -81.2347 274° West 303 349 9,900 -960 Descending Cleveland Center
07:23AM 41.5156 -81.3236 275° West 261 300 8,100 -1,500 Descending Cleveland Center
07:24AM 41.5192 -81.4094 273° West 245 282 7,000 -1,320 Descending Cleveland Center
07:25AM 41.5247 -81.4928 275° West 229 264 5,500 -1,020 Descending Cleveland Center
07:26AM 41.5306 -81.5706 276° West 214 246 5,000 -300 Descending Cleveland Center
07:27AM 41.5361 -81.6317 277° West 198 228 5,000 -180 Level Cleveland Center
07:28AM 41.5253 -81.6786 253° West 158 182 4,700 -480 Descending Cleveland Center
07:29AM 41.5000 -81.7142 226° Southwest 135 155 4,100 -900 Descending Cleveland Center
07:30AM 41.4767 -81.7556 233° Southwest 107 123 2,800 -960 Descending Cleveland Center
07:31AM 41.4597 -81.7800 227° Southwest 89 102 2,100 -600 Descending Cleveland Center
07:32AM 41.4428 -81.8075 231° Southwest 108 124 1,700 -540 Descending Cleveland Center
07:33AM 41.4194 -81.8403 226° Southwest 117 135 1,100 -600 Descending Cleveland Center
07:35AM 41.4000 -81.8500 252° West  Level FlightAware Approximate